createdAt,value
2024-02-19T00:02:05.886Z,4.69
2024-02-19T00:05:09.287Z,4.68
2024-02-19T00:08:11.723Z,4.69
2024-02-19T00:11:15.027Z,4.70
2024-02-19T00:14:17.221Z,4.77
2024-02-19T00:17:19.452Z,4.66
2024-02-19T00:20:21.764Z,4.44
2024-02-19T00:23:23.929Z,4.32
2024-02-19T00:26:26.091Z,4.24
2024-02-19T00:29:28.363Z,4.40
2024-02-19T00:32:30.779Z,4.48
2024-02-19T00:35:34.041Z,4.43
2024-02-19T00:38:36.300Z,4.43
2024-02-19T00:41:38.571Z,4.44
2024-02-19T00:44:40.773Z,4.31
2024-02-19T00:47:43.046Z,4.07
2024-02-19T00:50:45.781Z,3.88
2024-02-19T00:53:47.918Z,3.77
2024-02-19T00:56:50.049Z,3.86
2024-02-19T00:59:52.242Z,4.00
2024-02-19T01:02:54.779Z,4.13
2024-02-19T01:05:56.973Z,4.18
2024-02-19T01:08:59.202Z,4.23
2024-02-19T01:12:01.356Z,4.26
2024-02-19T01:15:04.551Z,4.25
2024-02-19T01:18:06.717Z,4.28
2024-02-19T01:21:08.876Z,4.26
2024-02-19T01:24:11.140Z,4.18
2024-02-19T01:27:13.266Z,4.18
2024-02-19T01:30:15.594Z,4.14
2024-02-19T01:33:17.754Z,3.95
2024-02-19T01:36:19.936Z,3.94
2024-02-19T01:39:22.894Z,4.00
2024-02-19T01:42:25.237Z,4.17
2024-02-19T01:45:27.675Z,4.13
2024-02-19T01:48:30.194Z,4.17
2024-02-19T01:51:36.771Z,4.21
2024-02-19T01:54:39.867Z,4.27
2024-02-19T01:57:43.654Z,4.12
2024-02-19T02:00:46.289Z,4.11
2024-02-19T02:03:48.822Z,4.25
2024-02-19T02:06:51.083Z,4.23
2024-02-19T02:09:53.825Z,4.26
2024-02-19T02:12:56.689Z,4.33
2024-02-19T02:15:58.895Z,4.25
2024-02-19T02:19:01.207Z,4.31
2024-02-19T02:22:03.738Z,4.37
2024-02-19T02:25:06.491Z,4.55
2024-02-19T02:28:08.863Z,4.41
2024-02-19T02:31:11.253Z,4.39
2024-02-19T02:34:14.005Z,4.33
2024-02-19T02:37:16.407Z,4.43
2024-02-19T02:40:18.737Z,4.49
2024-02-19T02:43:20.941Z,4.47
2024-02-19T02:46:23.163Z,4.51
2024-02-19T02:49:25.535Z,4.38
2024-02-19T02:52:28.043Z,4.20
2024-02-19T02:55:30.203Z,4.26
2024-02-19T02:58:34.510Z,4.21
2024-02-19T03:01:37.147Z,4.21
2024-02-19T03:04:39.618Z,4.30
2024-02-19T03:07:41.997Z,4.37
2024-02-19T03:10:44.534Z,4.45
2024-02-19T03:13:46.979Z,4.46
2024-02-19T03:16:49.228Z,4.35
2024-02-19T03:19:51.581Z,4.30
2024-02-19T03:22:54.379Z,4.32
2024-02-19T03:25:56.653Z,4.39
2024-02-19T03:28:58.868Z,4.43
2024-02-19T03:32:01.180Z,4.51
2024-02-19T03:35:04.710Z,4.47
2024-02-19T03:38:06.850Z,4.41
2024-02-19T03:41:09.394Z,4.37
2024-02-19T03:44:11.612Z,4.29
2024-02-19T03:47:13.843Z,4.32
2024-02-19T03:50:16.025Z,4.35
2024-02-19T03:53:18.473Z,4.38
2024-02-19T03:56:20.630Z,4.46
2024-02-19T03:59:23.858Z,4.51
2024-02-19T04:02:26.328Z,4.56
2024-02-19T04:05:28.572Z,4.55
2024-02-19T04:08:33.289Z,4.49
2024-02-19T04:11:36.060Z,4.37
2024-02-19T04:14:44.372Z,4.26
2024-02-19T04:17:51.124Z,4.17
2024-02-19T04:20:53.429Z,4.23
2024-02-19T04:23:56.687Z,4.28
2024-02-19T04:26:58.929Z,4.27
2024-02-19T04:30:01.112Z,4.31
2024-02-19T04:33:03.498Z,4.20
2024-02-19T04:36:08.158Z,4.12
2024-02-19T04:39:11.981Z,4.05
2024-02-19T04:42:14.443Z,4.05
2024-02-19T04:45:16.570Z,4.02
2024-02-19T04:48:18.718Z,4.07
2024-02-19T04:51:20.854Z,4.18
2024-02-19T04:54:23.081Z,4.21
2024-02-19T04:57:25.236Z,4.28
2024-02-19T05:00:27.409Z,4.35
2024-02-19T05:03:29.707Z,4.43
2024-02-19T05:06:31.998Z,4.43
2024-02-19T05:09:34.235Z,4.28
2024-02-19T05:12:36.656Z,4.22
2024-02-19T05:15:38.987Z,4.12
2024-02-19T05:18:41.211Z,4.10
2024-02-19T05:21:43.603Z,4.05
2024-02-19T05:24:48.120Z,4.07
2024-02-19T05:27:50.464Z,3.99
2024-02-19T05:30:53.824Z,3.98
2024-02-19T05:33:55.911Z,4.05
2024-02-19T05:36:58.067Z,3.94
2024-02-19T05:40:00.349Z,3.98
2024-02-19T05:43:02.611Z,3.92
2024-02-19T05:46:07.292Z,3.90
2024-02-19T05:49:11.473Z,3.93
2024-02-19T05:52:13.915Z,4.02
2024-02-19T05:55:16.202Z,4.07
2024-02-19T05:58:18.501Z,4.00
2024-02-19T06:01:23.274Z,3.86
2024-02-19T06:04:25.584Z,3.92
2024-02-19T06:07:27.880Z,3.88
2024-02-19T06:10:30.106Z,3.91
2024-02-19T06:13:32.434Z,3.96
2024-02-19T06:16:34.608Z,4.02
2024-02-19T06:19:40.220Z,4.01
2024-02-19T06:22:43.803Z,4.07
2024-02-19T06:25:46.058Z,4.04
2024-02-19T06:28:48.247Z,4.17
2024-02-19T06:31:53.254Z,4.32
2024-02-19T06:34:55.866Z,4.37
2024-02-19T06:37:58.186Z,4.40
2024-02-19T06:41:00.372Z,4.44
2024-02-19T06:44:02.650Z,4.53
2024-02-19T06:47:05.067Z,4.44
2024-02-19T06:50:07.794Z,4.37
2024-02-19T06:53:10.026Z,4.33
2024-02-19T06:56:13.518Z,4.26
2024-02-19T06:59:16.496Z,4.21
2024-02-19T07:02:18.793Z,4.33
2024-02-19T07:05:21.418Z,4.26
2024-02-19T07:08:26.632Z,4.25
2024-02-19T07:11:29.032Z,4.28
2024-02-19T07:14:31.210Z,4.41
2024-02-19T07:17:33.434Z,4.49
2024-02-19T07:20:35.692Z,4.59
2024-02-19T07:23:37.916Z,4.65
2024-02-19T07:26:40.122Z,4.66
2024-02-19T07:29:43.150Z,4.68
2024-02-19T07:32:45.529Z,4.67
2024-02-19T07:35:47.905Z,4.81
2024-02-19T07:38:50.069Z,4.94
2024-02-19T07:41:52.267Z,4.82
2024-02-19T07:44:54.478Z,4.69
2024-02-19T07:47:56.639Z,4.61
2024-02-19T07:50:58.867Z,4.48
2024-02-19T07:54:01.025Z,4.45
2024-02-19T07:57:03.266Z,4.51
2024-02-19T08:00:06.501Z,4.58
2024-02-19T08:03:09.238Z,4.82
2024-02-19T08:06:11.393Z,4.93
2024-02-19T08:09:13.563Z,5.03
2024-02-19T08:12:15.764Z,5.19
2024-02-19T08:15:17.957Z,5.32
2024-02-19T08:18:21.785Z,5.32
2024-02-19T08:21:24.427Z,5.43
2024-02-19T08:24:26.647Z,5.34
2024-02-19T08:27:28.905Z,5.38
2024-02-19T08:30:31.602Z,5.31
2024-02-19T08:33:33.749Z,5.11
2024-02-19T08:36:35.967Z,4.98
2024-02-19T08:39:39.689Z,5.10
2024-02-19T08:42:43.309Z,5.17
2024-02-19T08:45:45.593Z,5.28
2024-02-19T08:48:47.909Z,5.31
2024-02-19T08:51:50.222Z,5.42
2024-02-19T08:54:52.479Z,5.41
2024-02-19T08:57:54.750Z,5.37
2024-02-19T09:00:58.533Z,5.43
2024-02-19T09:04:01.069Z,5.65
2024-02-19T09:07:03.415Z,5.73
2024-02-19T09:10:06.445Z,5.70
2024-02-19T09:13:08.751Z,5.56
2024-02-19T09:16:11.100Z,5.56
2024-02-19T09:19:15.451Z,5.59
2024-02-19T09:22:18.198Z,5.60
2024-02-19T09:25:20.497Z,5.59
2024-02-19T09:28:23.202Z,5.60
2024-02-19T09:31:27.232Z,5.63
2024-02-19T09:34:30.011Z,5.66
2024-02-19T09:37:32.499Z,5.67
2024-02-19T09:40:37.198Z,5.83
2024-02-19T09:43:40.195Z,5.90
2024-02-19T09:46:43.064Z,5.97
2024-02-19T09:49:45.768Z,6.05
2024-02-19T09:52:48.232Z,6.12
2024-02-19T09:55:50.814Z,6.16
2024-02-19T09:58:53.543Z,6.21
2024-02-19T10:01:55.882Z,6.30
2024-02-19T10:05:00.331Z,6.36
2024-02-19T10:08:06.322Z,6.37
2024-02-19T10:11:12.046Z,6.36
2024-02-19T10:14:14.876Z,6.41
2024-02-19T10:17:30.080Z,6.43
2024-02-19T10:20:34.028Z,6.49
2024-02-19T10:23:36.218Z,6.55
2024-02-19T10:26:38.909Z,6.68
2024-02-19T10:29:41.116Z,6.76
2024-02-19T10:32:43.915Z,6.87
2024-02-19T10:35:48.232Z,7.00
2024-02-19T10:38:50.762Z,7.15
2024-02-19T10:41:53.045Z,7.29
2024-02-19T10:44:58.000Z,7.33
2024-02-19T10:48:00.495Z,7.38
2024-02-19T10:51:06.332Z,7.47
2024-02-19T10:54:08.574Z,7.51
2024-02-19T10:57:18.265Z,7.56
2024-02-19T11:00:27.589Z,7.66
2024-02-19T11:03:31.553Z,7.79
2024-02-19T11:06:35.315Z,7.87
2024-02-19T11:09:38.270Z,8.02
2024-02-19T11:12:41.387Z,8.08
2024-02-19T11:15:43.873Z,8.14
2024-02-19T11:18:46.453Z,8.14
2024-02-19T11:21:48.911Z,8.05
2024-02-19T11:24:52.153Z,8.01
2024-02-19T11:27:54.460Z,8.04
2024-02-19T11:31:03.785Z,8.09
2024-02-19T11:34:06.444Z,8.17
2024-02-19T11:37:09.937Z,8.24
2024-02-19T11:40:12.782Z,8.31
2024-02-19T11:43:16.712Z,8.28
2024-02-19T11:46:20.618Z,8.20
2024-02-19T11:49:23.921Z,8.16
2024-02-19T11:52:26.299Z,8.14
2024-02-19T11:55:32.228Z,8.10
2024-02-19T11:58:34.626Z,8.17
2024-02-19T12:01:38.290Z,8.18
2024-02-19T12:04:40.848Z,8.17
2024-02-19T12:07:43.755Z,8.15
2024-02-19T12:10:47.075Z,8.08
2024-02-19T12:13:49.276Z,8.02
2024-02-19T12:16:51.523Z,7.93
2024-02-19T12:19:57.059Z,7.94
2024-02-19T12:22:59.705Z,7.91
2024-02-19T12:26:02.019Z,7.90
2024-02-19T12:29:04.274Z,7.94
2024-02-19T12:32:06.585Z,7.82
2024-02-19T12:35:09.765Z,7.62
2024-02-19T12:38:12.525Z,7.57
2024-02-19T12:41:17.187Z,7.53
2024-02-19T12:44:19.955Z,7.55
2024-02-19T12:47:24.734Z,7.58
2024-02-19T12:50:29.122Z,7.60
2024-02-19T12:53:31.983Z,7.60
2024-02-19T12:56:34.191Z,7.62
2024-02-19T12:59:36.364Z,7.70
2024-02-19T13:02:38.701Z,7.71
2024-02-19T13:05:41.200Z,7.70
2024-02-19T13:08:45.359Z,7.63
2024-02-19T13:11:47.673Z,7.68
2024-02-19T13:14:49.884Z,7.76
2024-02-19T13:17:52.194Z,7.76
2024-02-19T13:20:57.680Z,7.78
2024-02-19T13:24:00.325Z,7.82
2024-02-19T13:27:02.529Z,7.94
2024-02-19T13:30:05.956Z,7.96
2024-02-19T13:33:08.479Z,7.98
2024-02-19T13:36:10.616Z,7.93
2024-02-19T13:39:13.634Z,7.88
2024-02-19T13:42:15.852Z,7.89
2024-02-19T13:45:24.635Z,7.83
2024-02-19T13:48:27.541Z,7.84
2024-02-19T13:51:30.235Z,7.89
2024-02-19T13:54:32.489Z,7.90
2024-02-19T13:57:34.728Z,7.96
2024-02-19T14:00:36.867Z,8.01
2024-02-19T14:03:39.094Z,8.10
2024-02-19T14:06:41.450Z,8.12
2024-02-19T14:09:43.882Z,8.15
2024-02-19T14:12:46.049Z,8.10
2024-02-19T14:15:48.318Z,8.01
2024-02-19T14:18:50.602Z,8.05
2024-02-19T14:21:54.170Z,8.11
2024-02-19T14:24:56.332Z,8.08
2024-02-19T14:28:00.678Z,8.05
2024-02-19T14:31:03.969Z,7.98
2024-02-19T14:34:07.995Z,7.91
2024-02-19T14:37:11.057Z,7.89
2024-02-19T14:40:18.816Z,7.88
2024-02-19T14:43:21.339Z,7.90
2024-02-19T14:46:23.753Z,7.88
2024-02-19T14:49:26.126Z,7.88
2024-02-19T14:52:28.648Z,7.84
2024-02-19T14:55:31.197Z,7.85
2024-02-19T14:58:33.998Z,7.84
2024-02-19T15:01:38.413Z,7.86
2024-02-19T15:04:41.815Z,7.84
2024-02-19T15:07:46.291Z,7.88
2024-02-19T15:10:48.832Z,7.83
2024-02-19T15:13:51.100Z,7.84
2024-02-19T15:16:53.437Z,7.88
2024-02-19T15:19:56.456Z,7.89
2024-02-19T15:22:58.686Z,7.81
2024-02-19T15:26:02.552Z,7.78
2024-02-19T15:29:05.500Z,7.78
2024-02-19T15:32:08.889Z,7.75
2024-02-19T15:35:11.377Z,7.79
2024-02-19T15:38:14.171Z,7.74
2024-02-19T15:41:21.106Z,7.79
2024-02-19T15:44:23.392Z,7.71
2024-02-19T15:47:26.625Z,7.58
2024-02-19T15:50:29.072Z,7.49
2024-02-19T15:53:31.220Z,7.47
2024-02-19T15:56:33.407Z,7.48
2024-02-19T15:59:36.217Z,7.47
2024-02-19T16:02:41.429Z,7.45
2024-02-19T16:05:44.592Z,7.47
2024-02-19T16:08:46.749Z,7.55
2024-02-19T16:11:51.102Z,7.51
2024-02-19T16:14:53.247Z,7.53
2024-02-19T16:17:55.474Z,7.52
2024-02-19T16:20:57.717Z,7.54
2024-02-19T16:23:59.934Z,7.59
2024-02-19T16:27:05.351Z,7.58
2024-02-19T16:30:10.339Z,7.59
2024-02-19T16:33:13.534Z,7.56
2024-02-19T16:36:16.124Z,7.47
2024-02-19T16:39:18.294Z,7.43
2024-02-19T16:42:20.563Z,7.37
2024-02-19T16:45:26.832Z,7.39
2024-02-19T16:48:29.447Z,7.41
2024-02-19T16:51:31.763Z,7.42
2024-02-19T16:54:33.974Z,7.37
2024-02-19T16:57:36.279Z,7.30
2024-02-19T17:00:38.520Z,7.27
2024-02-19T17:03:40.936Z,7.26
2024-02-19T17:06:45.181Z,7.24
2024-02-19T17:09:47.606Z,7.21
2024-02-19T17:12:49.876Z,7.22
2024-02-19T17:15:52.144Z,7.19
2024-02-19T17:18:54.334Z,7.21
2024-02-19T17:21:56.707Z,7.18
2024-02-19T17:24:59.005Z,7.16
2024-02-19T17:28:01.294Z,7.14
2024-02-19T17:31:04.620Z,7.14
2024-02-19T17:34:07.058Z,7.15
2024-02-19T17:37:10.220Z,7.11
2024-02-19T17:40:12.865Z,7.10
2024-02-19T17:43:15.726Z,7.06
2024-02-19T17:46:18.130Z,7.01
2024-02-19T17:49:20.481Z,7.00
2024-02-19T17:52:22.821Z,7.01
2024-02-19T17:55:25.179Z,7.02
2024-02-19T18:01:52.111Z,7.09
2024-02-19T18:04:57.509Z,7.05
2024-02-19T18:07:59.784Z,7.05
2024-02-19T18:11:02.632Z,7.01
2024-02-19T18:14:04.806Z,7.01
2024-02-19T18:17:06.972Z,7.04
2024-02-19T18:20:11.034Z,7.06
2024-02-19T18:23:13.539Z,7.00
2024-02-19T18:26:15.693Z,6.89
2024-02-19T18:29:18.303Z,6.95
2024-02-19T18:32:20.822Z,6.94
2024-02-19T18:35:23.117Z,7.00
2024-02-19T18:38:25.485Z,6.97
2024-02-19T18:41:28.841Z,6.97
2024-02-19T18:44:31.182Z,6.93
2024-02-19T18:47:33.306Z,6.92
2024-02-19T18:50:35.831Z,6.92
2024-02-19T18:53:38.548Z,6.89
2024-02-19T18:56:40.757Z,6.87
2024-02-19T18:59:42.983Z,6.87
2024-02-19T19:02:45.715Z,6.93
2024-02-19T19:05:48.301Z,6.92
2024-02-19T19:08:50.515Z,6.91
2024-02-19T19:11:52.869Z,6.90
2024-02-19T19:14:55.047Z,6.90
2024-02-19T19:17:57.229Z,6.90
2024-02-19T19:20:59.384Z,6.92
2024-02-19T19:24:01.837Z,6.90
2024-02-19T19:27:05.702Z,6.88
2024-02-19T19:30:08.676Z,6.82
2024-02-19T19:33:11.939Z,6.78
2024-02-19T19:36:14.745Z,6.76
2024-02-19T19:39:17.326Z,6.72
2024-02-19T19:42:21.359Z,6.66
2024-02-19T19:45:24.358Z,6.66
2024-02-19T19:48:29.001Z,6.65
2024-02-19T19:51:31.615Z,6.63
2024-02-19T19:54:33.832Z,6.59
2024-02-19T19:57:36.079Z,6.57
2024-02-19T20:00:38.290Z,6.53
2024-02-19T20:03:40.515Z,6.47
2024-02-19T20:06:42.743Z,6.41
2024-02-19T20:09:47.202Z,6.33
2024-02-19T20:12:50.871Z,6.25
2024-02-19T20:15:53.233Z,6.20
2024-02-19T20:18:56.982Z,6.12
2024-02-19T20:21:59.445Z,6.09
2024-02-19T20:25:01.728Z,6.13
2024-02-19T20:28:05.663Z,6.11
2024-02-19T20:31:08.054Z,6.05
2024-02-19T20:34:12.558Z,6.05
2024-02-19T20:37:16.101Z,6.06
2024-02-19T20:40:19.651Z,6.08
2024-02-19T20:43:22.060Z,6.07
2024-02-19T20:46:24.591Z,6.06
2024-02-19T20:49:26.853Z,6.05
2024-02-19T20:52:29.959Z,6.06
2024-02-19T20:55:32.225Z,6.11
2024-02-19T20:58:34.910Z,6.13
2024-02-19T21:01:37.318Z,6.17
2024-02-19T21:04:39.733Z,6.18
2024-02-19T21:07:44.946Z,6.19
2024-02-19T21:10:49.239Z,6.16
2024-02-19T21:13:51.456Z,6.12
2024-02-19T21:16:53.669Z,6.07
2024-02-19T21:19:59.523Z,6.02
2024-02-19T21:23:02.140Z,5.97
2024-02-19T21:26:04.567Z,5.97
2024-02-19T21:29:06.717Z,5.92
2024-02-19T21:32:08.990Z,5.87
2024-02-19T21:35:14.134Z,5.84
2024-02-19T21:38:16.433Z,5.79
2024-02-19T21:41:18.928Z,5.68
2024-02-19T21:44:22.966Z,5.65
2024-02-19T21:47:25.276Z,5.66
2024-02-19T21:50:31.268Z,5.72
2024-02-19T21:53:33.517Z,5.75
2024-02-19T21:56:36.054Z,5.75
2024-02-19T21:59:38.573Z,5.78
2024-02-19T22:02:40.899Z,5.78
2024-02-19T22:05:43.091Z,5.72
2024-02-19T22:08:45.231Z,5.68
2024-02-19T22:11:47.667Z,5.69
2024-02-19T22:14:49.857Z,5.68
2024-02-19T22:17:52.200Z,5.72
2024-02-19T22:20:54.555Z,5.74
2024-02-19T22:23:56.841Z,5.70
2024-02-19T22:26:59.260Z,5.71
2024-02-19T22:30:01.863Z,5.77
2024-02-19T22:33:04.248Z,5.81
2024-02-19T22:36:06.569Z,5.90
2024-02-19T22:39:10.916Z,5.90
2024-02-19T22:42:13.398Z,5.85
2024-02-19T22:45:15.602Z,5.85
2024-02-19T22:48:17.874Z,5.86
2024-02-19T22:51:20.237Z,5.79
2024-02-19T22:54:22.483Z,5.69
2024-02-19T22:57:24.655Z,5.60
2024-02-19T23:00:26.826Z,5.57
2024-02-19T23:03:29.322Z,5.59
2024-02-19T23:06:31.868Z,5.57
2024-02-19T23:09:34.181Z,5.45
2024-02-19T23:12:36.327Z,5.35
2024-02-19T23:15:38.445Z,5.26
2024-02-19T23:18:40.653Z,5.24
2024-02-19T23:21:42.899Z,5.24
2024-02-19T23:24:45.085Z,5.20
2024-02-19T23:27:47.200Z,5.14
2024-02-19T23:30:49.367Z,5.16
2024-02-19T23:33:51.994Z,5.19
2024-02-19T23:36:55.655Z,5.19
2024-02-19T23:39:59.478Z,5.15
2024-02-19T23:43:01.796Z,5.13
2024-02-19T23:46:04.094Z,5.09
2024-02-19T23:49:07.961Z,5.10
2024-02-19T23:52:10.568Z,5.15
2024-02-19T23:55:15.703Z,5.28
2024-02-19T23:58:17.960Z,5.48
